sensor_id;sensor_type;location;lat;lon;timestamp;P1;durP1;ratioP1;P2;durP2;ratioP2
38693;SDS011;24447;43.460;25.744;2022-11-20T00:03:41;11.77;;;4.95;;
38693;SDS011;24447;43.460;25.744;2022-11-20T00:06:08;16.73;;;5.70;;
38693;SDS011;24447;43.460;25.744;2022-11-20T00:08:36;13.88;;;5.68;;
38693;SDS011;24447;43.460;25.744;2022-11-20T00:11:06;13.77;;;5.50;;
38693;SDS011;24447;43.460;25.744;2022-11-20T00:13:33;13.02;;;5.43;;
38693;SDS011;24447;43.460;25.744;2022-11-20T00:16:00;11.70;;;4.95;;
38693;SDS011;24447;43.460;25.744;2022-11-20T00:18:27;12.80;;;5.32;;
38693;SDS011;24447;43.460;25.744;2022-11-20T00:20:53;11.98;;;5.53;;
38693;SDS011;24447;43.460;25.744;2022-11-20T00:23:25;12.50;;;4.88;;
38693;SDS011;24447;43.460;25.744;2022-11-20T00:25:51;8.70;;;4.25;;
38693;SDS011;24447;43.460;25.744;2022-11-20T00:28:17;21.90;;;9.50;;
38693;SDS011;24447;43.460;25.744;2022-11-20T00:30:42;16.92;;;8.43;;
38693;SDS011;24447;43.460;25.744;2022-11-20T00:33:08;17.58;;;8.95;;
38693;SDS011;24447;43.460;25.744;2022-11-20T00:35:34;17.50;;;9.73;;
38693;SDS011;24447;43.460;25.744;2022-11-20T00:38:00;14.15;;;6.25;;
38693;SDS011;24447;43.460;25.744;2022-11-20T00:40:26;11.52;;;5.32;;
38693;SDS011;24447;43.460;25.744;2022-11-20T00:42:52;15.18;;;5.03;;
38693;SDS011;24447;43.460;25.744;2022-11-20T00:45:18;10.32;;;4.57;;
38693;SDS011;24447;43.460;25.744;2022-11-20T00:47:44;14.30;;;5.68;;
38693;SDS011;24447;43.460;25.744;2022-11-20T00:50:09;14.90;;;4.90;;
38693;SDS011;24447;43.460;25.744;2022-11-20T00:52:35;14.02;;;5.43;;
38693;SDS011;24447;43.460;25.744;2022-11-20T00:55:01;11.60;;;4.95;;
38693;SDS011;24447;43.460;25.744;2022-11-20T00:57:27;11.70;;;5.32;;
38693;SDS011;24447;43.460;25.744;2022-11-20T00:59:53;15.57;;;7.40;;
38693;SDS011;24447;43.460;25.744;2022-11-20T01:02:19;19.73;;;8.50;;
38693;SDS011;24447;43.460;25.744;2022-11-20T01:04:45;17.55;;;7.13;;
38693;SDS011;24447;43.460;25.744;2022-11-20T01:07:11;17.52;;;6.10;;
38693;SDS011;24447;43.460;25.744;2022-11-20T01:09:36;10.93;;;4.90;;
38693;SDS011;24447;43.460;25.744;2022-11-20T01:12:03;17.15;;;6.57;;
38693;SDS011;24447;43.460;25.744;2022-11-20T01:14:29;16.00;;;6.60;;
38693;SDS011;24447;43.460;25.744;2022-11-20T01:16:55;15.10;;;6.25;;
38693;SDS011;24447;43.460;25.744;2022-11-20T01:19:21;17.08;;;6.88;;
38693;SDS011;24447;43.460;25.744;2022-11-20T01:21:48;15.88;;;6.63;;
38693;SDS011;24447;43.460;25.744;2022-11-20T01:24:17;10.73;;;4.90;;
38693;SDS011;24447;43.460;25.744;2022-11-20T01:26:44;11.65;;;5.03;;
38693;SDS011;24447;43.460;25.744;2022-11-20T01:29:15;14.60;;;5.53;;
38693;SDS011;24447;43.460;25.744;2022-11-20T01:31:42;16.92;;;6.82;;
38693;SDS011;24447;43.460;25.744;2022-11-20T01:34:10;13.02;;;5.80;;
38693;SDS011;24447;43.460;25.744;2022-11-20T01:36:37;10.45;;;4.38;;
38693;SDS011;24447;43.460;25.744;2022-11-20T01:39:05;12.20;;;4.47;;
38693;SDS011;24447;43.460;25.744;2022-11-20T01:41:33;11.32;;;4.25;;
38693;SDS011;24447;43.460;25.744;2022-11-20T01:44:19;11.45;;;4.30;;
38693;SDS011;24447;43.460;25.744;2022-11-20T01:46:57;12.10;;;4.03;;
38693;SDS011;24447;43.460;25.744;2022-11-20T01:49:27;10.10;;;4.45;;
38693;SDS011;24447;43.460;25.744;2022-11-20T01:52:03;18.35;;;5.35;;
38693;SDS011;24447;43.460;25.744;2022-11-20T01:54:41;16.30;;;4.45;;
38693;SDS011;24447;43.460;25.744;2022-11-20T01:57:12;11.45;;;4.38;;
38693;SDS011;24447;43.460;25.744;2022-11-20T01:59:39;12.48;;;5.00;;
38693;SDS011;24447;43.460;25.744;2022-11-20T02:02:10;21.83;;;6.78;;
38693;SDS011;24447;43.460;25.744;2022-11-20T02:04:36;17.48;;;6.65;;
38693;SDS011;24447;43.460;25.744;2022-11-20T02:07:02;16.48;;;6.65;;
38693;SDS011;24447;43.460;25.744;2022-11-20T02:09:30;19.20;;;7.28;;
38693;SDS011;24447;43.460;25.744;2022-11-20T02:11:56;24.70;;;12.32;;
38693;SDS011;24447;43.460;25.744;2022-11-20T02:14:23;25.98;;;12.80;;
38693;SDS011;24447;43.460;25.744;2022-11-20T02:16:49;24.90;;;13.65;;
38693;SDS011;24447;43.460;25.744;2022-11-20T02:19:23;20.50;;;9.85;;
38693;SDS011;24447;43.460;25.744;2022-11-20T02:24:32;26.25;;;11.85;;
38693;SDS011;24447;43.460;25.744;2022-11-20T02:29:37;20.27;;;9.10;;
38693;SDS011;24447;43.460;25.744;2022-11-20T02:32:06;15.93;;;6.63;;
38693;SDS011;24447;43.460;25.744;2022-11-20T02:34:32;14.32;;;6.40;;
38693;SDS011;24447;43.460;25.744;2022-11-20T02:36:58;15.45;;;6.18;;
38693;SDS011;24447;43.460;25.744;2022-11-20T02:39:25;11.65;;;5.22;;
38693;SDS011;24447;43.460;25.744;2022-11-20T02:41:52;16.60;;;5.88;;
38693;SDS011;24447;43.460;25.744;2022-11-20T02:44:19;21.02;;;7.25;;
38693;SDS011;24447;43.460;25.744;2022-11-20T02:46:45;16.85;;;7.50;;
38693;SDS011;24447;43.460;25.744;2022-11-20T02:49:11;21.02;;;7.72;;
38693;SDS011;24447;43.460;25.744;2022-11-20T02:51:37;18.08;;;7.78;;
38693;SDS011;24447;43.460;25.744;2022-11-20T02:54:03;18.95;;;8.23;;
38693;SDS011;24447;43.460;25.744;2022-11-20T02:56:29;16.00;;;6.68;;
38693;SDS011;24447;43.460;25.744;2022-11-20T02:58:56;22.30;;;12.32;;
38693;SDS011;24447;43.460;25.744;2022-11-20T03:01:22;19.63;;;8.98;;
38693;SDS011;24447;43.460;25.744;2022-11-20T03:03:48;17.83;;;6.78;;
38693;SDS011;24447;43.460;25.744;2022-11-20T03:06:15;19.65;;;7.28;;
38693;SDS011;24447;43.460;25.744;2022-11-20T03:08:42;13.77;;;6.20;;
38693;SDS011;24447;43.460;25.744;2022-11-20T03:11:08;13.63;;;6.50;;
38693;SDS011;24447;43.460;25.744;2022-11-20T03:13:34;17.42;;;6.68;;
38693;SDS011;24447;43.460;25.744;2022-11-20T03:16:10;17.30;;;6.82;;
38693;SDS011;24447;43.460;25.744;2022-11-20T03:18:38;15.55;;;6.55;;
38693;SDS011;24447;43.460;25.744;2022-11-20T03:21:05;12.45;;;5.57;;
38693;SDS011;24447;43.460;25.744;2022-11-20T03:23:31;19.23;;;7.35;;
38693;SDS011;24447;43.460;25.744;2022-11-20T03:26:16;20.58;;;9.65;;
38693;SDS011;24447;43.460;25.744;2022-11-20T03:28:48;17.67;;;7.82;;
38693;SDS011;24447;43.460;25.744;2022-11-20T03:31:15;18.50;;;7.80;;
38693;SDS011;24447;43.460;25.744;2022-11-20T03:33:42;22.27;;;9.23;;
38693;SDS011;24447;43.460;25.744;2022-11-20T03:36:09;17.80;;;8.50;;
38693;SDS011;24447;43.460;25.744;2022-11-20T03:38:36;15.35;;;7.15;;
38693;SDS011;24447;43.460;25.744;2022-11-20T03:41:24;24.10;;;12.00;;
38693;SDS011;24447;43.460;25.744;2022-11-20T03:44:00;24.30;;;9.93;;
38693;SDS011;24447;43.460;25.744;2022-11-20T03:46:27;19.77;;;8.95;;
38693;SDS011;24447;43.460;25.744;2022-11-20T03:48:53;18.98;;;9.38;;
38693;SDS011;24447;43.460;25.744;2022-11-20T03:53:57;23.05;;;11.98;;
38693;SDS011;24447;43.460;25.744;2022-11-20T03:56:26;22.95;;;11.75;;
38693;SDS011;24447;43.460;25.744;2022-11-20T03:58:53;22.45;;;9.50;;
38693;SDS011;24447;43.460;25.744;2022-11-20T04:01:20;21.05;;;11.32;;
38693;SDS011;24447;43.460;25.744;2022-11-20T04:03:48;24.25;;;12.07;;
38693;SDS011;24447;43.460;25.744;2022-11-20T04:08:41;22.67;;;10.60;;
38693;SDS011;24447;43.460;25.744;2022-11-20T04:13:40;30.45;;;9.68;;
38693;SDS011;24447;43.460;25.744;2022-11-20T04:16:07;37.88;;;14.95;;
38693;SDS011;24447;43.460;25.744;2022-11-20T04:18:34;27.23;;;11.48;;
38693;SDS011;24447;43.460;25.744;2022-11-20T04:21:00;29.40;;;10.77;;
38693;SDS011;24447;43.460;25.744;2022-11-20T04:23:26;23.80;;;9.18;;
38693;SDS011;24447;43.460;25.744;2022-11-20T04:25:52;19.95;;;9.10;;
38693;SDS011;24447;43.460;25.744;2022-11-20T04:28:18;23.92;;;10.85;;
38693;SDS011;24447;43.460;25.744;2022-11-20T04:30:44;28.02;;;12.05;;
38693;SDS011;24447;43.460;25.744;2022-11-20T04:33:10;24.27;;;10.73;;
38693;SDS011;24447;43.460;25.744;2022-11-20T04:35:37;21.45;;;9.48;;
38693;SDS011;24447;43.460;25.744;2022-11-20T04:38:03;20.48;;;8.77;;
38693;SDS011;24447;43.460;25.744;2022-11-20T04:40:29;24.23;;;10.27;;
38693;SDS011;24447;43.460;25.744;2022-11-20T04:42:56;38.75;;;15.93;;
38693;SDS011;24447;43.460;25.744;2022-11-20T04:45:22;29.27;;;13.18;;
38693;SDS011;24447;43.460;25.744;2022-11-20T04:47:48;26.92;;;10.90;;
38693;SDS011;24447;43.460;25.744;2022-11-20T04:50:14;25.10;;;8.90;;
38693;SDS011;24447;43.460;25.744;2022-11-20T04:52:40;21.38;;;9.73;;
38693;SDS011;24447;43.460;25.744;2022-11-20T04:55:06;23.13;;;10.30;;
38693;SDS011;24447;43.460;25.744;2022-11-20T04:57:33;22.52;;;9.70;;
38693;SDS011;24447;43.460;25.744;2022-11-20T04:59:58;28.98;;;11.43;;
38693;SDS011;24447;43.460;25.744;2022-11-20T05:02:24;22.48;;;10.60;;
38693;SDS011;24447;43.460;25.744;2022-11-20T05:04:50;26.80;;;10.05;;
38693;SDS011;24447;43.460;25.744;2022-11-20T05:07:16;21.73;;;10.13;;
38693;SDS011;24447;43.460;25.744;2022-11-20T05:09:42;28.13;;;11.80;;
38693;SDS011;24447;43.460;25.744;2022-11-20T05:12:08;28.40;;;12.93;;
38693;SDS011;24447;43.460;25.744;2022-11-20T05:14:34;22.98;;;11.15;;
38693;SDS011;24447;43.460;25.744;2022-11-20T05:17:00;27.13;;;12.57;;
38693;SDS011;24447;43.460;25.744;2022-11-20T05:19:26;20.40;;;8.75;;
38693;SDS011;24447;43.460;25.744;2022-11-20T05:21:52;24.23;;;8.90;;
38693;SDS011;24447;43.460;25.744;2022-11-20T05:24:18;24.55;;;9.50;;
38693;SDS011;24447;43.460;25.744;2022-11-20T05:26:44;21.85;;;10.93;;
38693;SDS011;24447;43.460;25.744;2022-11-20T05:29:13;23.55;;;10.75;;
38693;SDS011;24447;43.460;25.744;2022-11-20T05:31:42;27.05;;;10.13;;
38693;SDS011;24447;43.460;25.744;2022-11-20T05:34:07;24.75;;;10.70;;
38693;SDS011;24447;43.460;25.744;2022-11-20T05:36:33;24.65;;;9.85;;
38693;SDS011;24447;43.460;25.744;2022-11-20T05:38:59;22.83;;;8.88;;
38693;SDS011;24447;43.460;25.744;2022-11-20T05:41:25;22.35;;;9.88;;
38693;SDS011;24447;43.460;25.744;2022-11-20T05:43:51;25.95;;;11.43;;
38693;SDS011;24447;43.460;25.744;2022-11-20T05:46:19;26.33;;;10.02;;
38693;SDS011;24447;43.460;25.744;2022-11-20T05:48:46;26.85;;;11.55;;
38693;SDS011;24447;43.460;25.744;2022-11-20T05:51:14;27.15;;;11.75;;
38693;SDS011;24447;43.460;25.744;2022-11-20T05:53:41;28.38;;;12.27;;
38693;SDS011;24447;43.460;25.744;2022-11-20T05:56:09;27.67;;;13.02;;
38693;SDS011;24447;43.460;25.744;2022-11-20T05:58:36;37.65;;;16.45;;
38693;SDS011;24447;43.460;25.744;2022-11-20T06:01:12;35.15;;;15.75;;
38693;SDS011;24447;43.460;25.744;2022-11-20T06:03:40;31.35;;;14.63;;
38693;SDS011;24447;43.460;25.744;2022-11-20T06:06:16;30.50;;;13.15;;
38693;SDS011;24447;43.460;25.744;2022-11-20T06:08:43;36.75;;;15.65;;
38693;SDS011;24447;43.460;25.744;2022-11-20T06:11:10;50.33;;;18.88;;
38693;SDS011;24447;43.460;25.744;2022-11-20T06:13:37;64.20;;;20.52;;
38693;SDS011;24447;43.460;25.744;2022-11-20T06:16:03;43.88;;;19.83;;
38693;SDS011;24447;43.460;25.744;2022-11-20T06:18:30;55.80;;;20.08;;
38693;SDS011;24447;43.460;25.744;2022-11-20T06:21:03;66.30;;;25.40;;
38693;SDS011;24447;43.460;25.744;2022-11-20T06:23:32;47.88;;;19.90;;
38693;SDS011;24447;43.460;25.744;2022-11-20T06:26:02;78.40;;;30.00;;
38693;SDS011;24447;43.460;25.744;2022-11-20T06:28:32;63.20;;;24.33;;
38693;SDS011;24447;43.460;25.744;2022-11-20T06:30:58;62.67;;;26.02;;
38693;SDS011;24447;43.460;25.744;2022-11-20T06:33:25;59.03;;;25.95;;
38693;SDS011;24447;43.460;25.744;2022-11-20T06:35:51;65.75;;;27.30;;
38693;SDS011;24447;43.460;25.744;2022-11-20T06:38:17;84.72;;;29.80;;
38693;SDS011;24447;43.460;25.744;2022-11-20T06:40:43;71.45;;;31.13;;
38693;SDS011;24447;43.460;25.744;2022-11-20T06:43:09;65.05;;;28.05;;
38693;SDS011;24447;43.460;25.744;2022-11-20T06:45:35;64.32;;;27.35;;
38693;SDS011;24447;43.460;25.744;2022-11-20T06:48:02;65.88;;;27.42;;
38693;SDS011;24447;43.460;25.744;2022-11-20T06:50:28;70.72;;;23.85;;
38693;SDS011;24447;43.460;25.744;2022-11-20T06:52:54;51.60;;;21.55;;
38693;SDS011;24447;43.460;25.744;2022-11-20T06:55:20;61.67;;;24.23;;
38693;SDS011;24447;43.460;25.744;2022-11-20T06:57:50;64.53;;;24.25;;
38693;SDS011;24447;43.460;25.744;2022-11-20T07:00:19;57.47;;;22.23;;
38693;SDS011;24447;43.460;25.744;2022-11-20T07:02:48;61.90;;;23.70;;
38693;SDS011;24447;43.460;25.744;2022-11-20T07:05:15;61.45;;;23.95;;
38693;SDS011;24447;43.460;25.744;2022-11-20T07:07:41;56.25;;;23.88;;
38693;SDS011;24447;43.460;25.744;2022-11-20T07:10:07;58.22;;;23.48;;
38693;SDS011;24447;43.460;25.744;2022-11-20T07:12:33;55.83;;;26.17;;
38693;SDS011;24447;43.460;25.744;2022-11-20T07:14:59;65.15;;;24.15;;
38693;SDS011;24447;43.460;25.744;2022-11-20T07:17:25;80.47;;;27.65;;
38693;SDS011;24447;43.460;25.744;2022-11-20T07:19:51;66.50;;;25.73;;
38693;SDS011;24447;43.460;25.744;2022-11-20T07:22:17;72.53;;;26.33;;
38693;SDS011;24447;43.460;25.744;2022-11-20T07:24:43;89.72;;;33.60;;
38693;SDS011;24447;43.460;25.744;2022-11-20T07:27:09;106.68;;;43.30;;
38693;SDS011;24447;43.460;25.744;2022-11-20T07:29:35;82.30;;;36.92;;
38693;SDS011;24447;43.460;25.744;2022-11-20T07:32:01;68.05;;;26.50;;
38693;SDS011;24447;43.460;25.744;2022-11-20T07:34:30;74.35;;;26.48;;
38693;SDS011;24447;43.460;25.744;2022-11-20T07:36:56;69.45;;;26.65;;
38693;SDS011;24447;43.460;25.744;2022-11-20T07:39:22;59.05;;;24.08;;
38693;SDS011;24447;43.460;25.744;2022-11-20T07:41:48;50.70;;;20.10;;
38693;SDS011;24447;43.460;25.744;2022-11-20T07:44:14;53.03;;;21.35;;
38693;SDS011;24447;43.460;25.744;2022-11-20T07:46:40;45.20;;;19.67;;
38693;SDS011;24447;43.460;25.744;2022-11-20T07:49:08;52.00;;;19.55;;
38693;SDS011;24447;43.460;25.744;2022-11-20T07:51:34;44.88;;;17.85;;
38693;SDS011;24447;43.460;25.744;2022-11-20T07:54:00;39.10;;;16.65;;
38693;SDS011;24447;43.460;25.744;2022-11-20T07:56:27;38.75;;;16.50;;
38693;SDS011;24447;43.460;25.744;2022-11-20T07:58:53;47.22;;;18.52;;
38693;SDS011;24447;43.460;25.744;2022-11-20T08:01:19;43.15;;;18.08;;
38693;SDS011;24447;43.460;25.744;2022-11-20T08:03:44;38.05;;;15.20;;
38693;SDS011;24447;43.460;25.744;2022-11-20T08:06:10;41.60;;;16.42;;
38693;SDS011;24447;43.460;25.744;2022-11-20T08:08:36;39.03;;;16.58;;
38693;SDS011;24447;43.460;25.744;2022-11-20T08:11:04;37.72;;;13.95;;
38693;SDS011;24447;43.460;25.744;2022-11-20T08:13:49;30.77;;;13.20;;
38693;SDS011;24447;43.460;25.744;2022-11-20T08:16:33;34.50;;;15.65;;
38693;SDS011;24447;43.460;25.744;2022-11-20T08:19:01;33.95;;;14.57;;
38693;SDS011;24447;43.460;25.744;2022-11-20T08:21:27;34.03;;;12.45;;
38693;SDS011;24447;43.460;25.744;2022-11-20T08:23:53;32.35;;;12.50;;
38693;SDS011;24447;43.460;25.744;2022-11-20T08:26:20;28.83;;;12.07;;
38693;SDS011;24447;43.460;25.744;2022-11-20T08:28:46;31.13;;;12.68;;
38693;SDS011;24447;43.460;25.744;2022-11-20T08:31:12;29.42;;;12.23;;
38693;SDS011;24447;43.460;25.744;2022-11-20T08:33:38;32.03;;;12.60;;
38693;SDS011;24447;43.460;25.744;2022-11-20T08:36:04;29.92;;;12.40;;
38693;SDS011;24447;43.460;25.744;2022-11-20T08:38:31;31.23;;;12.35;;
38693;SDS011;24447;43.460;25.744;2022-11-20T08:41:01;28.73;;;12.25;;
38693;SDS011;24447;43.460;25.744;2022-11-20T08:43:46;25.02;;;10.45;;
38693;SDS011;24447;43.460;25.744;2022-11-20T08:46:12;24.67;;;10.38;;
38693;SDS011;24447;43.460;25.744;2022-11-20T08:48:38;27.42;;;9.15;;
38693;SDS011;24447;43.460;25.744;2022-11-20T08:51:04;24.58;;;9.77;;
38693;SDS011;24447;43.460;25.744;2022-11-20T08:53:31;23.13;;;10.07;;
38693;SDS011;24447;43.460;25.744;2022-11-20T08:55:57;26.88;;;10.32;;
38693;SDS011;24447;43.460;25.744;2022-11-20T08:58:23;25.40;;;10.57;;
38693;SDS011;24447;43.460;25.744;2022-11-20T09:00:49;25.25;;;10.75;;
38693;SDS011;24447;43.460;25.744;2022-11-20T09:03:15;23.77;;;10.00;;
38693;SDS011;24447;43.460;25.744;2022-11-20T09:05:41;25.23;;;9.77;;
38693;SDS011;24447;43.460;25.744;2022-11-20T09:08:07;30.92;;;10.63;;
38693;SDS011;24447;43.460;25.744;2022-11-20T09:10:34;28.35;;;10.98;;
38693;SDS011;24447;43.460;25.744;2022-11-20T09:13:00;23.02;;;9.75;;
38693;SDS011;24447;43.460;25.744;2022-11-20T09:15:26;27.10;;;11.55;;
38693;SDS011;24447;43.460;25.744;2022-11-20T09:20:22;24.38;;;10.27;;
38693;SDS011;24447;43.460;25.744;2022-11-20T09:22:48;23.88;;;9.90;;
38693;SDS011;24447;43.460;25.744;2022-11-20T09:25:14;26.02;;;10.70;;
38693;SDS011;24447;43.460;25.744;2022-11-20T09:27:39;25.33;;;10.10;;
38693;SDS011;24447;43.460;25.744;2022-11-20T09:30:10;24.65;;;9.60;;
38693;SDS011;24447;43.460;25.744;2022-11-20T09:32:41;30.08;;;12.52;;
38693;SDS011;24447;43.460;25.744;2022-11-20T09:35:07;27.15;;;12.52;;
38693;SDS011;24447;43.460;25.744;2022-11-20T09:37:34;28.63;;;14.20;;
38693;SDS011;24447;43.460;25.744;2022-11-20T09:40:00;28.50;;;12.18;;
38693;SDS011;24447;43.460;25.744;2022-11-20T09:55:37;45.83;;;18.33;;
38693;SDS011;24447;43.460;25.744;2022-11-20T09:58:05;40.63;;;19.98;;
38693;SDS011;24447;43.460;25.744;2022-11-20T10:00:32;53.25;;;22.25;;
38693;SDS011;24447;43.460;25.744;2022-11-20T10:03:01;49.00;;;19.52;;
38693;SDS011;24447;43.460;25.744;2022-11-20T10:05:42;41.72;;;17.88;;
38693;SDS011;24447;43.460;25.744;2022-11-20T10:11:00;47.45;;;19.20;;
38693;SDS011;24447;43.460;25.744;2022-11-20T10:16:29;37.97;;;17.15;;
38693;SDS011;24447;43.460;25.744;2022-11-20T10:29:17;49.90;;;18.65;;
38693;SDS011;24447;43.460;25.744;2022-11-20T10:31:46;40.95;;;16.48;;
38693;SDS011;24447;43.460;25.744;2022-11-20T10:35:21;39.67;;;17.58;;
38693;SDS011;24447;43.460;25.744;2022-11-20T10:37:33;49.63;;;20.20;;
38693;SDS011;24447;43.460;25.744;2022-11-20T10:42:37;36.72;;;16.30;;
38693;SDS011;24447;43.460;25.744;2022-11-20T10:47:50;32.05;;;13.48;;
38693;SDS011;24447;43.460;25.744;2022-11-20T10:50:20;32.00;;;12.43;;
38693;SDS011;24447;43.460;25.744;2022-11-20T10:53:02;30.80;;;13.90;;
38693;SDS011;24447;43.460;25.744;2022-11-20T10:55:33;31.02;;;12.80;;
38693;SDS011;24447;43.460;25.744;2022-11-20T11:01:06;25.27;;;11.48;;
38693;SDS011;24447;43.460;25.744;2022-11-20T11:03:40;28.38;;;11.38;;
38693;SDS011;24447;43.460;25.744;2022-11-20T11:08:37;22.48;;;9.90;;
38693;SDS011;24447;43.460;25.744;2022-11-20T11:14:09;29.40;;;13.18;;
38693;SDS011;24447;43.460;25.744;2022-11-20T11:16:48;24.23;;;10.98;;
38693;SDS011;24447;43.460;25.744;2022-11-20T11:19:18;26.48;;;12.00;;
38693;SDS011;24447;43.460;25.744;2022-11-20T11:21:49;30.33;;;14.25;;
38693;SDS011;24447;43.460;25.744;2022-11-20T11:26:55;26.90;;;11.27;;
38693;SDS011;24447;43.460;25.744;2022-11-20T11:29:23;26.73;;;11.57;;
38693;SDS011;24447;43.460;25.744;2022-11-20T11:32:02;27.42;;;13.40;;
38693;SDS011;24447;43.460;25.744;2022-11-20T11:34:29;31.00;;;12.93;;
38693;SDS011;24447;43.460;25.744;2022-11-20T11:36:57;27.33;;;10.43;;
38693;SDS011;24447;43.460;25.744;2022-11-20T11:39:24;27.42;;;10.80;;
38693;SDS011;24447;43.460;25.744;2022-11-20T11:41:51;25.15;;;10.32;;
38693;SDS011;24447;43.460;25.744;2022-11-20T11:44:35;27.30;;;12.02;;
38693;SDS011;24447;43.460;25.744;2022-11-20T11:52:57;27.30;;;12.65;;
38693;SDS011;24447;43.460;25.744;2022-11-20T11:55:29;28.98;;;12.93;;
38693;SDS011;24447;43.460;25.744;2022-11-20T12:00:32;32.08;;;13.82;;
38693;SDS011;24447;43.460;25.744;2022-11-20T12:03:13;32.55;;;13.45;;
38693;SDS011;24447;43.460;25.744;2022-11-20T12:05:47;30.48;;;13.50;;
38693;SDS011;24447;43.460;25.744;2022-11-20T12:08:20;45.60;;;20.67;;
38693;SDS011;24447;43.460;25.744;2022-11-20T12:10:56;48.08;;;20.75;;
38693;SDS011;24447;43.460;25.744;2022-11-20T12:16:07;76.78;;;30.33;;
38693;SDS011;24447;43.460;25.744;2022-11-20T12:18:37;84.07;;;30.33;;
38693;SDS011;24447;43.460;25.744;2022-11-20T12:57:12;35.20;;;16.35;;
38693;SDS011;24447;43.460;25.744;2022-11-20T13:02:52;30.67;;;12.60;;
38693;SDS011;24447;43.460;25.744;2022-11-20T13:05:46;32.20;;;13.57;;
38693;SDS011;24447;43.460;25.744;2022-11-20T13:08:36;27.63;;;12.48;;
38693;SDS011;24447;43.460;25.744;2022-11-20T13:16:20;36.80;;;15.48;;
38693;SDS011;24447;43.460;25.744;2022-11-20T13:18:55;32.90;;;13.15;;
38693;SDS011;24447;43.460;25.744;2022-11-20T13:21:22;28.45;;;13.20;;
38693;SDS011;24447;43.460;25.744;2022-11-20T13:24:18;28.83;;;11.48;;
38693;SDS011;24447;43.460;25.744;2022-11-20T13:27:05;29.42;;;11.07;;
38693;SDS011;24447;43.460;25.744;2022-11-20T13:29:32;26.48;;;12.00;;
38693;SDS011;24447;43.460;25.744;2022-11-20T13:34:37;25.48;;;10.73;;
38693;SDS011;24447;43.460;25.744;2022-11-20T13:37:03;29.65;;;11.50;;
38693;SDS011;24447;43.460;25.744;2022-11-20T13:39:30;26.27;;;11.85;;
38693;SDS011;24447;43.460;25.744;2022-11-20T13:41:59;24.38;;;9.93;;
38693;SDS011;24447;43.460;25.744;2022-11-20T13:44:28;21.33;;;10.40;;
38693;SDS011;24447;43.460;25.744;2022-11-20T13:46:59;22.75;;;9.93;;
38693;SDS011;24447;43.460;25.744;2022-11-20T13:49:27;18.85;;;7.30;;
38693;SDS011;24447;43.460;25.744;2022-11-20T14:01:08;23.30;;;10.13;;
38693;SDS011;24447;43.460;25.744;2022-11-20T14:03:35;22.20;;;9.48;;
38693;SDS011;24447;43.460;25.744;2022-11-20T14:06:02;21.30;;;9.13;;
38693;SDS011;24447;43.460;25.744;2022-11-20T14:08:32;22.58;;;9.57;;
38693;SDS011;24447;43.460;25.744;2022-11-20T14:11:13;25.55;;;9.00;;
38693;SDS011;24447;43.460;25.744;2022-11-20T14:13:55;24.55;;;9.90;;
38693;SDS011;24447;43.460;25.744;2022-11-20T14:16:25;30.65;;;14.00;;
38693;SDS011;24447;43.460;25.744;2022-11-20T14:18:53;38.95;;;17.90;;
38693;SDS011;24447;43.460;25.744;2022-11-20T14:21:27;32.60;;;13.40;;
38693;SDS011;24447;43.460;25.744;2022-11-20T14:24:28;51.42;;;23.83;;
38693;SDS011;24447;43.460;25.744;2022-11-20T14:26:49;41.20;;;19.38;;
38693;SDS011;24447;43.460;25.744;2022-11-20T14:29:19;33.35;;;15.82;;
38693;SDS011;24447;43.460;25.744;2022-11-20T14:31:48;41.80;;;19.75;;
38693;SDS011;24447;43.460;25.744;2022-11-20T14:34:18;41.42;;;16.30;;
38693;SDS011;24447;43.460;25.744;2022-11-20T14:36:46;49.85;;;22.23;;
38693;SDS011;24447;43.460;25.744;2022-11-20T14:39:22;43.58;;;22.02;;
38693;SDS011;24447;43.460;25.744;2022-11-20T14:41:52;41.83;;;14.63;;
38693;SDS011;24447;43.460;25.744;2022-11-20T14:44:23;31.77;;;14.15;;
38693;SDS011;24447;43.460;25.744;2022-11-20T14:46:52;34.45;;;17.00;;
38693;SDS011;24447;43.460;25.744;2022-11-20T14:49:18;31.65;;;15.40;;
38693;SDS011;24447;43.460;25.744;2022-11-20T14:51:44;60.70;;;44.72;;
38693;SDS011;24447;43.460;25.744;2022-11-20T14:54:12;44.88;;;23.13;;
38693;SDS011;24447;43.460;25.744;2022-11-20T14:56:58;31.00;;;16.48;;
38693;SDS011;24447;43.460;25.744;2022-11-20T14:59:32;29.70;;;15.20;;
38693;SDS011;24447;43.460;25.744;2022-11-20T15:02:00;31.75;;;11.98;;
38693;SDS011;24447;43.460;25.744;2022-11-20T15:04:28;26.20;;;9.75;;
38693;SDS011;24447;43.460;25.744;2022-11-20T15:06:55;27.45;;;11.07;;
38693;SDS011;24447;43.460;25.744;2022-11-20T15:09:23;47.72;;;18.20;;
38693;SDS011;24447;43.460;25.744;2022-11-20T15:11:53;44.40;;;22.27;;
38693;SDS011;24447;43.460;25.744;2022-11-20T15:14:21;59.20;;;27.95;;
38693;SDS011;24447;43.460;25.744;2022-11-20T15:16:47;41.47;;;17.92;;
38693;SDS011;24447;43.460;25.744;2022-11-20T15:19:17;39.40;;;17.80;;
38693;SDS011;24447;43.460;25.744;2022-11-20T15:24:10;57.55;;;28.58;;
38693;SDS011;24447;43.460;25.744;2022-11-20T15:26:36;52.67;;;28.15;;
38693;SDS011;24447;43.460;25.744;2022-11-20T15:29:10;50.85;;;24.85;;
38693;SDS011;24447;43.460;25.744;2022-11-20T15:31:37;54.60;;;27.48;;
38693;SDS011;24447;43.460;25.744;2022-11-20T15:34:13;47.15;;;25.33;;
38693;SDS011;24447;43.460;25.744;2022-11-20T15:36:41;40.58;;;20.63;;
38693;SDS011;24447;43.460;25.744;2022-11-20T15:39:08;33.88;;;18.75;;
38693;SDS011;24447;43.460;25.744;2022-11-20T15:41:35;38.78;;;18.73;;
38693;SDS011;24447;43.460;25.744;2022-11-20T15:44:01;30.15;;;13.98;;
38693;SDS011;24447;43.460;25.744;2022-11-20T15:46:29;37.25;;;16.80;;
38693;SDS011;24447;43.460;25.744;2022-11-20T15:48:59;41.97;;;17.65;;
38693;SDS011;24447;43.460;25.744;2022-11-20T15:51:36;33.50;;;14.82;;
38693;SDS011;24447;43.460;25.744;2022-11-20T15:54:09;35.03;;;15.52;;
38693;SDS011;24447;43.460;25.744;2022-11-20T15:56:37;31.60;;;17.80;;
38693;SDS011;24447;43.460;25.744;2022-11-20T15:59:03;40.10;;;17.73;;
38693;SDS011;24447;43.460;25.744;2022-11-20T16:01:29;39.95;;;18.13;;
38693;SDS011;24447;43.460;25.744;2022-11-20T16:03:55;32.28;;;15.85;;
38693;SDS011;24447;43.460;25.744;2022-11-20T16:06:21;29.88;;;13.68;;
38693;SDS011;24447;43.460;25.744;2022-11-20T16:08:47;27.40;;;12.43;;
38693;SDS011;24447;43.460;25.744;2022-11-20T16:11:14;27.08;;;12.45;;
38693;SDS011;24447;43.460;25.744;2022-11-20T16:13:41;26.98;;;12.07;;
38693;SDS011;24447;43.460;25.744;2022-11-20T16:16:33;32.63;;;14.80;;
38693;SDS011;24447;43.460;25.744;2022-11-20T16:19:00;46.42;;;19.63;;
38693;SDS011;24447;43.460;25.744;2022-11-20T16:21:26;38.50;;;15.20;;
38693;SDS011;24447;43.460;25.744;2022-11-20T16:23:57;26.80;;;11.50;;
38693;SDS011;24447;43.460;25.744;2022-11-20T16:26:26;30.85;;;11.88;;
38693;SDS011;24447;43.460;25.744;2022-11-20T16:28:52;27.75;;;11.35;;
38693;SDS011;24447;43.460;25.744;2022-11-20T16:31:19;27.77;;;12.80;;
38693;SDS011;24447;43.460;25.744;2022-11-20T16:33:52;33.47;;;14.05;;
38693;SDS011;24447;43.460;25.744;2022-11-20T16:36:19;27.27;;;10.18;;